createdAt,value
2019-01-23T00:03:41.309Z,22.47
2019-01-23T00:06:23.190Z,22.10
2019-01-23T00:12:21.139Z,23.07
2019-01-23T00:15:10.748Z,24.23
2019-01-23T00:17:52.537Z,22.60
2019-01-23T00:20:42.071Z,23.83
2019-01-23T00:23:24.448Z,21.97
2019-01-23T00:26:14.008Z,22.53
2019-01-23T00:29:03.527Z,23.10
2019-01-23T00:31:45.594Z,24.23
2019-01-23T00:37:56.731Z,23.00
2019-01-23T00:40:39.441Z,23.47
2019-01-23T00:43:29.068Z,24.57
2019-01-23T00:46:11.167Z,24.60
2019-01-23T00:49:03.056Z,23.00
2019-01-23T00:51:45.835Z,23.17
2019-01-23T00:54:35.489Z,22.77
2019-01-23T00:57:17.831Z,21.63
2019-01-23T01:03:36.737Z,21.47
2019-01-23T01:06:26.301Z,21.30
2019-01-23T01:09:09.659Z,21.37
2019-01-23T01:11:59.497Z,21.70
2019-01-23T01:14:41.801Z,21.87
2019-01-23T01:17:31.399Z,21.40
2019-01-23T01:20:13.905Z,21.47
2019-01-23T01:23:03.523Z,23.47
2019-01-23T01:28:47.878Z,22.00
2019-01-23T01:34:32.184Z,20.13
2019-01-23T01:37:14.548Z,20.50
2019-01-23T01:43:13.018Z,21.73
2019-01-23T01:46:02.573Z,22.50
2019-01-23T01:51:52.534Z,19.97
2019-01-23T01:54:34.392Z,21.13
2019-01-23T01:58:03.335Z,21.47
2019-01-23T02:00:52.848Z,21.30
2019-01-23T02:03:42.385Z,23.63
2019-01-23T02:06:24.877Z,21.03
2019-01-23T02:09:14.426Z,23.03
2019-01-23T02:11:56.865Z,20.83
2019-01-23T02:14:46.537Z,21.23
2019-01-23T02:17:31.096Z,22.00
2019-01-23T02:23:35.951Z,20.53
2019-01-23T02:26:25.507Z,21.03
2019-01-23T02:29:09.620Z,21.53
2019-01-23T02:31:52.127Z,22.17
2019-01-23T02:34:38.409Z,21.50
2019-01-23T02:40:23.640Z,21.43
2019-01-23T02:46:13.731Z,22.13
2019-01-23T02:48:55.454Z,22.60
2019-01-23T02:51:45.033Z,21.83
2019-01-23T02:54:27.273Z,22.97
2019-01-23T03:00:24.683Z,21.17
2019-01-23T03:03:14.256Z,22.20
2019-01-23T03:05:56.781Z,22.83
2019-01-23T03:08:46.258Z,22.77
2019-01-23T03:11:28.750Z,22.47
2019-01-23T03:14:18.432Z,22.90
2019-01-23T03:17:00.302Z,22.27
2019-01-23T03:22:44.637Z,21.53
2019-01-23T03:25:39.522Z,21.63
2019-01-23T03:28:23.399Z,21.53
2019-01-23T03:31:05.875Z,21.03
2019-01-23T03:33:55.523Z,22.13
2019-01-23T03:36:37.965Z,21.50
2019-01-23T03:42:33.837Z,23.23
2019-01-23T03:48:24.649Z,22.43
2019-01-23T03:51:07.788Z,21.53
2019-01-23T03:53:59.396Z,22.93
2019-01-23T03:56:41.474Z,21.67
2019-01-23T03:59:32.328Z,20.47
2019-01-23T04:02:15.960Z,20.70
2019-01-23T04:08:14.609Z,20.97
2019-01-23T04:11:04.152Z,20.53
2019-01-23T04:13:54.027Z,20.20
2019-01-23T04:16:35.769Z,20.03
2019-01-23T04:19:25.298Z,22.43
2019-01-23T04:22:07.395Z,22.13
2019-01-23T04:24:56.915Z,21.67
2019-01-23T04:27:39.186Z,21.57
2019-01-23T04:30:47.686Z,22.37
2019-01-23T04:33:37.386Z,21.03
2019-01-23T04:36:19.824Z,21.63
2019-01-23T04:39:09.812Z,23.13
2019-01-23T04:41:52.464Z,21.70
2019-01-23T04:44:42.000Z,22.27
2019-01-23T04:47:23.997Z,22.73
2019-01-23T04:50:53.454Z,22.53
2019-01-23T04:53:38.807Z,21.53
2019-01-23T04:56:47.413Z,21.17
2019-01-23T04:59:29.239Z,21.30
2019-01-23T05:05:11.299Z,18.63
2019-01-23T05:14:17.908Z,19.33
2019-01-23T05:17:00.394Z,19.67
2019-01-23T05:19:49.983Z,22.10
2019-01-23T05:22:32.674Z,26.40
2019-01-23T05:28:10.192Z,27.83
2019-01-23T05:30:59.796Z,26.57
2019-01-23T05:33:41.694Z,26.90
2019-01-23T05:36:31.216Z,27.33
2019-01-23T05:39:13.468Z,26.00
2019-01-23T05:42:21.896Z,26.03
2019-01-23T05:45:04.094Z,25.63
2019-01-23T05:51:02.630Z,26.00
2019-01-23T05:53:52.193Z,26.63
2019-01-23T05:56:34.402Z,26.73
2019-01-23T05:59:23.964Z,27.03
2019-01-23T06:02:06.577Z,25.80
2019-01-23T06:08:06.823Z,26.70
2019-01-23T06:10:56.477Z,27.53
2019-01-23T06:13:38.353Z,26.83
2019-01-23T06:16:27.909Z,27.17
2019-01-23T06:19:10.248Z,27.53
2019-01-23T06:22:12.297Z,26.37
2019-01-23T06:24:44.147Z,25.03
2019-01-23T06:30:35.126Z,25.90
2019-01-23T06:33:24.702Z,26.80
2019-01-23T06:36:07.085Z,25.50
2019-01-23T06:38:56.684Z,26.97
2019-01-23T06:41:39.198Z,27.77
2019-01-23T06:47:21.487Z,26.40
2019-01-23T06:50:14.012Z,26.40
2019-01-23T06:53:03.550Z,26.17
2019-01-23T06:55:53.114Z,27.37
2019-01-23T06:58:42.800Z,27.07
2019-01-23T07:04:18.778Z,25.30
2019-01-23T07:16:27.121Z,27.50
2019-01-23T07:19:16.655Z,26.80
2019-01-23T07:21:58.981Z,26.33
2019-01-23T07:27:55.184Z,25.27
2019-01-23T07:33:45.857Z,27.27
2019-01-23T07:36:28.614Z,28.00
2019-01-23T07:42:12.050Z,26.83
2019-01-23T07:48:03.877Z,27.00
2019-01-23T07:51:32.813Z,28.00
2019-01-23T07:54:15.428Z,25.70
2019-01-23T07:57:04.945Z,26.03
2019-01-23T07:59:47.674Z,27.40
2019-01-23T08:05:44.008Z,27.17
2019-01-23T08:08:33.652Z,27.20
2019-01-23T08:11:42.049Z,27.70
2019-01-23T08:14:24.357Z,28.27
2019-01-23T08:20:02.785Z,28.30
2019-01-23T08:22:52.462Z,27.73
2019-01-23T08:25:35.084Z,27.73
2019-01-23T08:31:25.320Z,25.63
2019-01-23T08:34:07.887Z,25.30
2019-01-23T08:36:57.400Z,23.47
2019-01-23T08:39:40.971Z,23.77
2019-01-23T08:42:30.523Z,24.53
2019-01-23T08:45:13.207Z,25.33
2019-01-23T08:48:02.755Z,24.33
2019-01-23T08:56:54.547Z,24.00
2019-01-23T08:59:37.188Z,23.50
2019-01-23T09:02:26.711Z,23.47
2019-01-23T09:05:09.611Z,23.83
2019-01-23T09:07:59.150Z,22.17
2019-01-23T09:10:40.877Z,22.57
2019-01-23T09:13:30.444Z,23.50
2019-01-23T09:16:13.452Z,22.27
2019-01-23T09:19:02.980Z,22.13
2019-01-23T09:21:45.506Z,24.67
2019-01-23T09:24:35.044Z,22.80
2019-01-23T09:27:18.492Z,22.57
2019-01-23T09:30:00.478Z,21.80
2019-01-23T09:33:12.313Z,20.67
2019-01-23T09:36:39.929Z,22.97
2019-01-23T09:39:42.207Z,21.33
2019-01-23T09:49:48.590Z,21.87
2019-01-23T09:55:53.716Z,22.77
2019-01-23T09:58:35.683Z,23.43
2019-01-23T10:01:25.198Z,23.43
2019-01-23T10:04:10.133Z,21.93
2019-01-23T10:06:59.653Z,22.80
2019-01-23T10:09:41.641Z,21.53
2019-01-23T10:12:31.302Z,21.43
2019-01-23T10:15:14.838Z,21.77
2019-01-23T10:18:04.433Z,22.07
2019-01-23T10:20:53.997Z,22.73
2019-01-23T10:23:43.555Z,21.33
2019-01-23T10:26:26.609Z,21.80
2019-01-23T10:29:16.195Z,21.07
2019-01-23T10:31:58.518Z,21.53
2019-01-23T10:34:41.134Z,21.40
2019-01-23T10:37:30.716Z,21.80
2019-01-23T10:40:14.409Z,21.83
2019-01-23T10:46:11.718Z,19.93
2019-01-23T10:49:01.404Z,20.70
2019-01-23T10:51:43.730Z,20.50
2019-01-23T10:57:41.079Z,20.37
2019-01-23T11:03:26.867Z,20.43
2019-01-23T11:06:08.958Z,21.23
2019-01-23T11:08:58.483Z,20.03
2019-01-23T11:11:43.469Z,20.00
2019-01-23T11:14:33.021Z,20.30
2019-01-23T11:17:15.653Z,18.00
2019-01-23T11:20:25.718Z,19.80
2019-01-23T11:23:08.383Z,18.57
2019-01-23T11:25:57.898Z,19.43
2019-01-23T11:28:39.704Z,18.73
2019-01-23T11:31:48.286Z,17.93
2019-01-23T11:34:30.697Z,19.10
2019-01-23T11:37:20.246Z,17.37
2019-01-23T11:40:02.954Z,17.63
2019-01-23T11:42:52.491Z,18.13
2019-01-23T11:45:34.245Z,20.07
2019-01-23T11:48:23.893Z,21.57
2019-01-23T11:51:06.496Z,21.40
2019-01-23T11:56:48.676Z,21.43
2019-01-23T12:02:53.409Z,18.93
2019-01-23T12:05:35.692Z,19.87
2019-01-23T12:08:25.212Z,19.77
2019-01-23T12:11:07.558Z,19.87
2019-01-23T12:13:57.069Z,19.50
2019-01-23T12:16:39.082Z,20.00
2019-01-23T12:22:36.893Z,19.53
2019-01-23T12:25:26.445Z,19.03
2019-01-23T12:28:29.150Z,18.10
2019-01-23T12:30:59.852Z,18.53
2019-01-23T12:33:49.488Z,19.93
2019-01-23T12:36:31.981Z,17.53
2019-01-23T12:39:21.563Z,18.27
2019-01-23T12:42:04.124Z,19.37
2019-01-23T12:44:53.985Z,19.13
2019-01-23T12:47:35.779Z,18.57
2019-01-23T12:53:54.128Z,17.63
2019-01-23T12:56:43.663Z,18.87
2019-01-23T12:59:33.206Z,19.57
2019-01-23T13:02:14.877Z,18.43
2019-01-23T13:05:05.161Z,19.03
2019-01-23T13:07:47.924Z,18.83
2019-01-23T13:13:37.522Z,20.33
2019-01-23T13:16:19.244Z,18.93
2019-01-23T13:19:08.742Z,19.43
2019-01-23T13:21:50.861Z,18.90
2019-01-23T13:24:59.332Z,20.17
2019-01-23T13:27:41.651Z,20.97
2019-01-23T13:30:31.202Z,19.73
2019-01-23T13:33:20.771Z,20.30
2019-01-23T13:36:02.466Z,19.50
2019-01-23T13:38:52.048Z,18.87
2019-01-23T13:41:34.500Z,18.77
2019-01-23T13:44:24.022Z,18.27
2019-01-23T13:47:06.625Z,18.97
2019-01-23T13:49:56.177Z,18.33
2019-01-23T13:52:37.997Z,18.03
2019-01-23T13:58:41.583Z,17.80
2019-01-23T14:01:26.901Z,18.70
2019-01-23T14:04:09.566Z,18.13
2019-01-23T14:10:08.599Z,17.50
2019-01-23T14:15:46.905Z,16.83
2019-01-23T14:18:37.103Z,17.47
2019-01-23T14:21:19.813Z,16.20
2019-01-23T14:27:19.366Z,16.33
2019-01-23T14:33:45.190Z,16.30
2019-01-23T14:36:27.350Z,16.40
2019-01-23T14:39:16.900Z,16.80
2019-01-23T14:41:59.340Z,17.60
2019-01-23T14:44:48.892Z,15.80
2019-01-23T14:47:31.396Z,18.43
2019-01-23T14:51:00.359Z,17.97
2019-01-23T14:53:42.414Z,17.67
2019-01-23T14:56:31.972Z,17.90
2019-01-23T14:59:14.055Z,17.60
2019-01-23T15:05:10.731Z,17.53
2019-01-23T15:08:00.253Z,18.87
2019-01-23T15:10:49.826Z,18.33
2019-01-23T15:13:33.011Z,18.50
2019-01-23T15:16:22.504Z,17.30
2019-01-23T15:19:05.032Z,18.07
2019-01-23T15:21:54.555Z,17.30
2019-01-23T15:24:36.981Z,16.70
2019-01-23T15:27:26.560Z,16.37
2019-01-23T15:30:08.981Z,17.00
2019-01-23T15:32:59.290Z,18.37
2019-01-23T15:35:41.633Z,16.70
2019-01-23T15:41:32.510Z,17.10
2019-01-23T15:44:14.341Z,16.80
2019-01-23T15:47:03.897Z,17.10
2019-01-23T15:49:46.369Z,17.83
2019-01-23T15:52:35.877Z,16.90
2019-01-23T15:55:19.979Z,16.87
2019-01-23T15:58:09.629Z,17.03
2019-01-23T16:07:05.027Z,16.70
2019-01-23T16:10:08.998Z,17.20
2019-01-23T16:12:38.877Z,17.27
2019-01-23T16:15:21.503Z,17.37
2019-01-23T16:18:11.045Z,18.27
2019-01-23T16:21:00.559Z,17.70
2019-01-23T16:23:43.232Z,16.87
2019-01-23T16:26:32.803Z,17.07
2019-01-23T16:29:15.519Z,17.07
2019-01-23T16:32:05.197Z,17.70
2019-01-23T16:34:47.801Z,16.37
2019-01-23T16:37:30.425Z,17.13
2019-01-23T16:40:30.727Z,17.60
2019-01-23T16:43:20.374Z,16.80
2019-01-23T16:46:02.769Z,16.33
2019-01-23T16:52:19.673Z,17.77
2019-01-23T16:55:09.473Z,17.30
2019-01-23T16:58:00.165Z,17.03
2019-01-23T17:00:42.650Z,17.93
2019-01-23T17:06:26.100Z,20.30
2019-01-23T17:12:23.769Z,19.00
2019-01-23T17:18:15.415Z,19.77
2019-01-23T17:20:57.616Z,21.97
2019-01-23T17:23:47.176Z,22.03
2019-01-23T17:26:29.360Z,20.47
2019-01-23T17:29:18.882Z,21.80
2019-01-23T17:32:00.801Z,22.60
2019-01-23T17:37:58.876Z,23.57
2019-01-23T17:43:57.691Z,22.30
2019-01-23T17:46:41.599Z,22.70
2019-01-23T17:49:50.129Z,23.37
2019-01-23T17:52:32.161Z,23.43
2019-01-23T17:56:05.453Z,21.87
2019-01-23T17:58:47.191Z,23.60
2019-01-23T18:01:37.084Z,23.90
2019-01-23T18:04:18.872Z,23.43
2019-01-23T18:07:08.442Z,24.53
2019-01-23T18:09:51.566Z,22.27
2019-01-23T18:15:47.412Z,22.30
2019-01-23T18:18:36.985Z,24.03
2019-01-23T18:21:18.790Z,23.23
2019-01-23T18:24:27.732Z,23.13
2019-01-23T18:27:10.232Z,21.97
2019-01-23T18:32:48.976Z,22.37
2019-01-23T18:36:14.804Z,21.83
2019-01-23T18:39:42.518Z,21.27
2019-01-23T18:42:28.656Z,21.10
2019-01-23T18:45:56.309Z,21.67
2019-01-23T18:48:57.428Z,22.33
2019-01-23T18:52:10.094Z,23.10
2019-01-23T18:54:52.090Z,21.70
2019-01-23T18:57:41.752Z,23.80
2019-01-23T19:00:24.249Z,22.10
2019-01-23T19:06:22.905Z,23.13
2019-01-23T19:09:23.461Z,21.53
2019-01-23T19:12:13.613Z,21.80
2019-01-23T19:14:57.546Z,23.43
2019-01-23T19:17:47.085Z,23.53
2019-01-23T19:20:36.922Z,24.43
2019-01-23T19:23:26.613Z,23.97
2019-01-23T19:26:08.470Z,23.47
2019-01-23T19:28:58.298Z,23.30
2019-01-23T19:31:40.435Z,24.47
2019-01-23T19:34:30.356Z,23.07
2019-01-23T19:37:13.151Z,24.27
2019-01-23T19:46:13.100Z,23.47
2019-01-23T19:49:02.742Z,23.77
2019-01-23T19:51:44.810Z,23.50
2019-01-23T19:57:27.858Z,22.43
2019-01-23T20:00:36.524Z,23.30
2019-01-23T20:03:26.252Z,22.47
2019-01-23T20:06:15.851Z,21.37
2019-01-23T20:08:58.829Z,22.97
2019-01-23T20:11:48.550Z,22.00
2019-01-23T20:14:31.900Z,21.90
2019-01-23T20:18:01.316Z,20.53
2019-01-23T20:20:45.321Z,20.60
2019-01-23T20:23:34.921Z,21.63
2019-01-23T20:26:26.541Z,21.77
2019-01-23T20:29:16.671Z,20.67
2019-01-23T20:32:00.719Z,19.70
2019-01-23T20:37:52.710Z,20.10
2019-01-23T20:40:35.223Z,20.63
2019-01-23T20:43:25.012Z,20.50
2019-01-23T20:46:11.557Z,19.33
2019-01-23T20:49:01.112Z,20.33
2019-01-23T20:51:43.258Z,20.63
2019-01-23T20:54:33.194Z,22.20
2019-01-23T20:57:15.143Z,20.93
2019-01-23T21:03:26.043Z,19.97
2019-01-23T21:06:08.976Z,19.17
2019-01-23T21:08:58.664Z,18.77
2019-01-23T21:11:41.984Z,18.67
2019-01-23T21:14:31.516Z,19.73
2019-01-23T21:17:13.945Z,18.57
2019-01-23T21:20:22.403Z,18.30
2019-01-23T21:23:04.811Z,17.83
2019-01-23T21:25:54.352Z,18.67
2019-01-23T21:28:36.690Z,16.47
2019-01-23T21:31:26.202Z,17.90
2019-01-23T21:34:08.205Z,16.00
2019-01-23T21:36:57.727Z,15.97
2019-01-23T21:39:40.171Z,15.27
2019-01-23T21:42:29.833Z,17.67
2019-01-23T21:45:12.531Z,16.37
2019-01-23T21:48:02.541Z,16.77
2019-01-23T21:50:52.378Z,16.47
2019-01-23T21:53:35.207Z,16.43
2019-01-23T21:56:43.672Z,16.97
2019-01-23T21:59:26.035Z,17.37
2019-01-23T22:05:54.429Z,16.73
2019-01-23T22:08:36.255Z,17.00
2019-01-23T22:11:25.842Z,17.03
2019-01-23T22:14:08.482Z,17.87
2019-01-23T22:16:58.012Z,17.70
2019-01-23T22:19:40.270Z,17.73
2019-01-23T22:25:37.581Z,17.13
2019-01-23T22:28:27.144Z,17.87
2019-01-23T22:31:09.060Z,16.70
2019-01-23T22:37:06.824Z,16.63
2019-01-23T22:39:56.370Z,16.67
2019-01-23T22:46:01.232Z,15.63
2019-01-23T22:48:43.670Z,16.67
2019-01-23T22:51:33.211Z,16.37
2019-01-23T22:54:15.143Z,16.30
2019-01-23T22:57:04.706Z,16.50
2019-01-23T22:59:47.179Z,16.43
2019-01-23T23:02:36.729Z,16.57
2019-01-23T23:05:19.126Z,17.23
2019-01-23T23:08:08.893Z,15.53
2019-01-23T23:10:58.441Z,15.20
2019-01-23T23:13:47.963Z,16.37
2019-01-23T23:16:30.324Z,15.83
2019-01-23T23:19:19.943Z,16.17
2019-01-23T23:22:02.427Z,15.80
2019-01-23T23:24:52.087Z,16.80
2019-01-23T23:27:39.391Z,16.73
2019-01-23T23:33:33.056Z,16.50
2019-01-23T23:36:20.807Z,17.43
2019-01-23T23:47:49.119Z,18.07
2019-01-23T23:50:30.956Z,17.37
2019-01-23T23:56:29.026Z,15.77
2019-01-23T23:59:11.109Z,16.87
